Archival Weather

Heathrow

Heathrow, United Kingdom (EGLL)

Report from: Thursday, June 23, 2022 2:50 PM BST
Current time: Tuesday, August 16, 2022 7:38 AM BST

Current weather
Weather history
Weather forecast

Temperature24.0°C (75.2°F)
Dew point11.0°C (51.8°F)
Winds 6 kts (3.1 m/s, 6.9 mph) Vrb
Winds variableWinds variable from North (10°) to East-Southeast (110°)
Visibility6.2 mi. (10 km)
Clouds Few clouds 4,900 ft. (1,494 m)
Altimeter29.77 in.Hg (1008 mB)
Relative humidity44 %
Density altitude1,407 ft. (429 m)
Remarks Fully automated report
Flight conditions Visual Meteorological Conditions
Raw dataEGLL 231350Z AUTO 07006KT 010V110 9999 FEW049 24/11 Q1008
An error has occurred. This application may no longer respond until reloaded. Reload 🗙